createdAt,value
2019-01-11T00:02:07.072Z,95700.59
2019-01-11T00:04:57.593Z,95706.11
2019-01-11T00:07:47.772Z,95706.88
2019-01-11T00:10:39.296Z,95709.83
2019-01-11T00:13:29.354Z,95709.22
2019-01-11T00:16:19.951Z,95705.61
2019-01-11T00:19:10.231Z,95704.70
2019-01-11T00:22:00.054Z,95705.11
2019-01-11T00:24:50.113Z,95709.04
2019-01-11T00:27:41.253Z,95708.13
2019-01-11T00:30:31.003Z,95701.02
2019-01-11T00:33:20.964Z,95707.03
2019-01-11T00:36:11.014Z,95702.20
2019-01-11T00:39:00.976Z,95703.08
2019-01-11T00:41:51.300Z,95712.23
2019-01-11T00:44:41.052Z,95710.17
2019-01-11T00:47:31.236Z,95712.09
2019-01-11T00:50:22.877Z,95711.56
2019-01-11T00:53:13.274Z,95711.95
2019-01-11T00:56:03.250Z,95715.28
2019-01-11T00:58:53.279Z,95709.28
2019-01-11T01:01:43.373Z,95714.17
2019-01-11T01:04:33.431Z,95723.70
2019-01-11T01:07:23.512Z,95725.92
2019-01-11T01:10:13.947Z,95730.32
2019-01-11T01:13:04.093Z,95728.00
2019-01-11T01:15:53.844Z,95735.42
2019-01-11T01:18:43.887Z,95732.95
2019-01-11T01:21:34.081Z,95730.50
2019-01-11T01:24:24.118Z,95741.17
2019-01-11T01:27:14.197Z,95739.03
2019-01-11T01:30:09.201Z,95737.52
2019-01-11T01:32:58.903Z,95743.97
2019-01-11T01:35:48.788Z,95737.31
2019-01-11T01:38:39.498Z,95744.86
2019-01-11T01:41:29.481Z,95745.67
2019-01-11T01:44:19.338Z,95746.98
2019-01-11T01:47:09.416Z,95745.68
2019-01-11T01:49:59.381Z,95746.25
2019-01-11T01:52:49.238Z,95745.57
2019-01-11T01:55:39.144Z,95737.80
2019-01-11T01:58:29.532Z,95745.94
2019-01-11T02:01:19.741Z,95752.02
2019-01-11T02:04:10.067Z,95750.30
2019-01-11T02:07:00.356Z,95755.00
2019-01-11T02:09:50.338Z,95750.92
2019-01-11T02:12:40.113Z,95746.64
2019-01-11T02:15:36.366Z,95752.52
2019-01-11T02:18:26.216Z,95754.28
2019-01-11T02:21:17.142Z,95745.25
2019-01-11T02:24:06.963Z,95746.80
2019-01-11T02:26:56.587Z,95750.80
2019-01-11T02:29:46.431Z,95744.25
2019-01-11T02:32:36.261Z,95739.50
2019-01-11T02:35:26.258Z,95748.97
2019-01-11T02:38:16.198Z,95751.50
2019-01-11T02:41:06.084Z,95744.75
2019-01-11T02:43:55.807Z,95753.46
2019-01-11T02:46:45.839Z,95753.23
2019-01-11T02:49:40.036Z,95756.13
2019-01-11T02:52:26.866Z,95759.00
2019-01-11T02:55:36.077Z,95760.84
2019-01-11T02:58:25.998Z,95756.77
2019-01-11T03:01:16.099Z,95757.77
2019-01-11T03:04:06.223Z,95755.82
2019-01-11T03:06:56.190Z,95753.54
2019-01-11T03:09:46.304Z,95749.48
2019-01-11T03:12:36.121Z,95744.03
2019-01-11T03:15:25.840Z,95744.41
2019-01-11T03:18:15.857Z,95753.53
2019-01-11T03:21:06.406Z,95755.14
2019-01-11T03:23:56.287Z,95755.84
2019-01-11T03:26:46.374Z,95757.97
2019-01-11T03:29:36.349Z,95753.92
2019-01-11T03:32:26.559Z,95754.32
2019-01-11T03:35:17.585Z,95761.05
2019-01-11T03:38:07.943Z,95760.19
2019-01-11T03:40:57.680Z,95755.87
2019-01-11T03:43:47.489Z,95754.36
2019-01-11T03:46:37.222Z,95759.36
2019-01-11T03:49:27.366Z,95758.38
2019-01-11T03:52:17.322Z,95753.00
2019-01-11T03:55:10.482Z,95759.75
2019-01-11T03:58:00.815Z,95766.84
2019-01-11T04:00:50.845Z,95760.95
2019-01-11T04:03:41.270Z,95763.19
2019-01-11T04:06:31.041Z,95766.52
2019-01-11T04:09:21.358Z,95762.28
2019-01-11T04:12:11.056Z,95766.98
2019-01-11T04:15:00.931Z,95773.18
2019-01-11T04:18:09.051Z,95769.81
2019-01-11T04:20:58.862Z,95772.18
2019-01-11T04:23:49.119Z,95771.28
2019-01-11T04:26:41.237Z,95776.93
2019-01-11T04:29:31.037Z,95775.06
2019-01-11T04:32:21.158Z,95783.24
2019-01-11T04:35:15.950Z,95782.39
2019-01-11T04:38:06.478Z,95787.08
2019-01-11T04:40:56.271Z,95785.59
2019-01-11T04:43:46.268Z,95786.55
2019-01-11T04:46:36.284Z,95779.44
2019-01-11T04:49:26.030Z,95785.95
2019-01-11T04:52:15.918Z,95783.73
2019-01-11T04:55:07.545Z,95794.77
2019-01-11T04:57:57.399Z,95792.27
2019-01-11T05:00:47.537Z,95794.92
2019-01-11T05:03:37.687Z,95794.72
2019-01-11T05:06:27.621Z,95795.41
2019-01-11T05:09:18.741Z,95796.73
2019-01-11T05:12:08.882Z,95800.97
2019-01-11T05:14:58.862Z,95807.33
2019-01-11T05:17:49.068Z,95801.58
2019-01-11T05:20:38.798Z,95812.66
2019-01-11T05:23:28.742Z,95812.55
2019-01-11T05:26:18.907Z,95813.42
2019-01-11T05:29:09.057Z,95815.52
2019-01-11T05:31:59.484Z,95815.84
2019-01-11T05:34:49.866Z,95814.95
2019-01-11T05:37:40.363Z,95817.41
2019-01-11T05:40:30.440Z,95816.84
2019-01-11T05:43:20.142Z,95818.92
2019-01-11T05:46:10.245Z,95824.64
2019-01-11T05:48:59.752Z,95822.92
2019-01-11T05:51:50.601Z,95828.26
2019-01-11T05:54:40.777Z,95829.64
2019-01-11T05:57:30.993Z,95838.16
2019-01-11T06:00:21.105Z,95828.61
2019-01-11T06:03:11.017Z,95845.40
2019-01-11T06:06:00.955Z,95843.23
2019-01-11T06:08:50.945Z,95837.14
2019-01-11T06:11:40.877Z,95837.38
2019-01-11T06:14:30.727Z,95837.55
2019-01-11T06:17:20.650Z,95845.37
2019-01-11T06:20:15.545Z,95846.98
2019-01-11T06:23:05.626Z,95855.27
2019-01-11T06:25:55.572Z,95859.49
2019-01-11T06:28:45.741Z,95854.12
2019-01-11T06:31:35.799Z,95857.89
2019-01-11T06:34:26.597Z,95864.70
2019-01-11T06:37:16.706Z,95858.30
2019-01-11T06:40:08.472Z,95860.78
2019-01-11T06:43:03.479Z,95865.24
2019-01-11T06:45:49.775Z,95867.37
2019-01-11T06:48:41.275Z,95868.31
2019-01-11T06:51:31.371Z,95868.30
2019-01-11T06:54:21.263Z,95878.70
2019-01-11T06:57:11.087Z,95879.63
2019-01-11T07:00:00.914Z,95880.75
2019-01-11T07:02:51.265Z,95885.41
2019-01-11T07:05:43.448Z,95885.52
2019-01-11T07:08:33.618Z,95890.40
2019-01-11T07:11:23.903Z,95887.81
2019-01-11T07:14:14.131Z,95888.52
2019-01-11T07:17:04.185Z,95891.40
2019-01-11T07:19:54.116Z,95889.89
2019-01-11T07:22:43.946Z,95890.22
2019-01-11T07:25:34.322Z,95894.22
2019-01-11T07:28:24.373Z,95892.36
2019-01-11T07:31:15.998Z,95893.80
2019-01-11T07:34:12.243Z,95901.78
2019-01-11T07:37:03.601Z,95897.95
2019-01-11T07:40:13.001Z,95903.25
2019-01-11T07:43:03.098Z,95900.11
2019-01-11T07:45:54.794Z,95907.91
2019-01-11T07:48:44.939Z,95909.38
2019-01-11T07:51:34.767Z,95912.29
2019-01-11T07:54:27.069Z,95920.52
2019-01-11T07:57:17.598Z,95914.72
2019-01-11T08:00:09.830Z,95915.39
2019-01-11T08:03:19.092Z,95922.36
2019-01-11T08:06:09.133Z,95921.30
2019-01-11T08:08:59.330Z,95917.44
2019-01-11T08:11:49.468Z,95920.33
2019-01-11T08:14:39.192Z,95925.05
2019-01-11T08:17:29.681Z,95929.78
2019-01-11T08:20:19.780Z,95931.11
2019-01-11T08:23:09.687Z,95934.20
2019-01-11T08:25:59.465Z,95933.75
2019-01-11T08:28:49.435Z,95929.39
2019-01-11T08:31:42.917Z,95923.81
2019-01-11T08:34:51.707Z,95931.09
2019-01-11T08:37:41.559Z,95927.75
2019-01-11T08:40:45.126Z,95929.48
2019-01-11T08:43:35.421Z,95933.05
2019-01-11T08:46:25.256Z,95933.22
2019-01-11T08:49:15.360Z,95936.99
2019-01-11T08:52:05.582Z,95937.67
2019-01-11T08:54:55.299Z,95938.49
2019-01-11T08:57:45.475Z,95939.09
2019-01-11T09:00:35.451Z,95940.25
2019-01-11T09:03:25.411Z,95942.01
2019-01-11T09:06:15.652Z,95936.57
2019-01-11T09:09:08.559Z,95941.23
2019-01-11T09:11:58.587Z,95942.54
2019-01-11T09:15:08.064Z,95948.34
2019-01-11T09:18:18.659Z,95946.36
2019-01-11T09:21:09.603Z,95941.77
2019-01-11T09:24:00.073Z,95947.89
2019-01-11T09:26:51.558Z,95952.20
2019-01-11T09:29:41.995Z,95949.53
2019-01-11T09:32:32.216Z,95951.61
2019-01-11T09:35:22.148Z,95951.02
2019-01-11T09:38:12.043Z,95948.02
2019-01-11T09:41:01.960Z,95947.48
2019-01-11T09:43:51.931Z,95949.84
2019-01-11T09:46:41.976Z,95947.06
2019-01-11T09:49:32.487Z,95945.84
2019-01-11T09:52:22.519Z,95950.27
2019-01-11T09:55:31.468Z,95951.88
2019-01-11T09:58:21.159Z,95951.21
2019-01-11T10:01:11.212Z,95948.55
2019-01-11T10:04:03.909Z,95944.83
2019-01-11T10:07:05.773Z,95945.09
2019-01-11T10:09:56.275Z,95948.67
2019-01-11T10:12:46.453Z,95941.34
2019-01-11T10:15:36.285Z,95940.80
2019-01-11T10:18:26.430Z,95943.08
2019-01-11T10:21:21.970Z,95937.94
2019-01-11T10:24:08.070Z,95936.86
2019-01-11T10:26:59.048Z,95933.28
2019-01-11T10:30:11.512Z,95935.39
2019-01-11T10:33:20.353Z,95937.80
2019-01-11T10:36:10.184Z,95930.82
2019-01-11T10:39:00.145Z,95931.34
2019-01-11T10:41:50.233Z,95933.81
2019-01-11T10:44:40.260Z,95928.83
2019-01-11T10:47:30.063Z,95920.78
2019-01-11T10:50:20.005Z,95921.69
2019-01-11T10:53:10.512Z,95919.10
2019-01-11T10:56:00.476Z,95911.80
2019-01-11T10:58:50.610Z,95910.09
2019-01-11T11:01:40.403Z,95912.48
2019-01-11T11:04:30.784Z,95910.81
2019-01-11T11:07:20.770Z,95907.09
2019-01-11T11:10:12.957Z,95898.55
2019-01-11T11:13:02.936Z,95898.34
2019-01-11T11:15:54.268Z,95892.44
2019-01-11T11:18:44.335Z,95892.58
2019-01-11T11:21:34.761Z,95882.86
2019-01-11T11:24:24.886Z,95880.05
2019-01-11T11:27:14.887Z,95876.73
2019-01-11T11:30:06.177Z,95876.87
2019-01-11T11:33:03.346Z,95873.38
2019-01-11T11:35:53.423Z,95870.68
2019-01-11T11:38:43.327Z,95870.03
2019-01-11T11:41:33.526Z,95863.02
2019-01-11T11:44:24.083Z,95863.63
2019-01-11T11:47:14.283Z,95862.72
2019-01-11T11:50:04.467Z,95863.28
2019-01-11T11:52:54.634Z,95861.11
2019-01-11T11:55:44.403Z,95862.47
2019-01-11T11:58:34.311Z,95853.42
2019-01-11T12:01:24.162Z,95857.98
2019-01-11T12:04:14.303Z,95858.00
2019-01-11T12:07:07.629Z,95850.44
2019-01-11T12:09:55.651Z,95849.41
2019-01-11T12:12:46.230Z,95843.16
2019-01-11T12:15:36.124Z,95839.39
2019-01-11T12:18:26.114Z,95838.83
2019-01-11T12:21:16.362Z,95832.84
2019-01-11T12:24:06.286Z,95828.02
2019-01-11T12:26:56.583Z,95826.03
2019-01-11T12:29:46.366Z,95824.61
2019-01-11T12:32:36.845Z,95822.14
2019-01-11T12:35:26.763Z,95823.48
2019-01-11T12:38:16.871Z,95821.52
2019-01-11T12:41:07.037Z,95819.53
2019-01-11T12:43:57.243Z,95816.18
2019-01-11T12:46:47.304Z,95814.03
2019-01-11T12:49:37.018Z,95814.09
2019-01-11T12:52:27.255Z,95810.55
2019-01-11T12:55:17.091Z,95804.60
2019-01-11T12:58:07.395Z,95808.13
2019-01-11T13:00:57.463Z,95807.65
2019-01-11T13:03:47.514Z,95799.05
2019-01-11T13:06:37.455Z,95803.77
2019-01-11T13:09:27.507Z,95804.64
2019-01-11T13:12:17.404Z,95807.85
2019-01-11T13:15:11.222Z,95805.89
2019-01-11T13:18:01.162Z,95804.19
2019-01-11T13:20:51.030Z,95801.91
2019-01-11T13:23:40.828Z,95793.50
2019-01-11T13:26:30.933Z,95800.77
2019-01-11T13:29:23.168Z,95802.13
2019-01-11T13:32:12.844Z,95800.70
2019-01-11T13:35:02.671Z,95805.21
2019-01-11T13:37:54.331Z,95801.34
2019-01-11T13:40:44.721Z,95799.72
2019-01-11T13:43:35.018Z,95803.18
2019-01-11T13:46:25.145Z,95799.05
2019-01-11T13:49:15.301Z,95798.09
2019-01-11T13:52:07.348Z,95795.69
2019-01-11T13:54:56.450Z,95799.67
2019-01-11T13:57:46.577Z,95804.25
2019-01-11T14:00:36.959Z,95806.23
2019-01-11T14:03:26.962Z,95800.25
2019-01-11T14:06:17.334Z,95799.88
2019-01-11T14:09:10.389Z,95801.71
2019-01-11T14:12:00.365Z,95805.95
2019-01-11T14:14:50.817Z,95802.33
2019-01-11T14:17:40.984Z,95800.83
2019-01-11T14:20:31.055Z,95800.18
2019-01-11T14:23:21.199Z,95801.39
2019-01-11T14:26:11.055Z,95809.68
2019-01-11T14:29:00.901Z,95801.87
2019-01-11T14:31:51.733Z,95802.50
2019-01-11T14:34:41.651Z,95793.81
2019-01-11T14:37:32.347Z,95797.62
2019-01-11T14:40:22.806Z,95799.13
2019-01-11T14:43:13.299Z,95794.08
2019-01-11T14:46:03.548Z,95792.09
2019-01-11T14:48:53.493Z,95796.83
2019-01-11T14:51:43.575Z,95793.60
2019-01-11T14:54:35.534Z,95790.23
2019-01-11T14:57:25.937Z,95795.22
2019-01-11T15:00:22.404Z,95792.34
2019-01-11T15:03:13.745Z,95797.52
2019-01-11T15:06:03.942Z,95795.58
2019-01-11T15:08:55.818Z,95794.33
2019-01-11T15:11:45.696Z,95796.59
2019-01-11T15:14:35.652Z,95790.58
2019-01-11T15:17:25.893Z,95795.57
2019-01-11T15:20:18.966Z,95799.09
2019-01-11T15:23:27.942Z,95801.87
2019-01-11T15:26:18.109Z,95805.92
2019-01-11T15:29:07.987Z,95805.52
2019-01-11T15:31:58.295Z,95815.04
2019-01-11T15:34:48.281Z,95804.06
2019-01-11T15:37:39.379Z,95810.48
2019-01-11T15:40:36.491Z,95803.73
2019-01-11T15:43:34.689Z,95808.81
2019-01-11T15:46:24.526Z,95807.19
2019-01-11T15:49:14.721Z,95804.30
2019-01-11T15:52:04.902Z,95799.78
2019-01-11T15:54:54.863Z,95800.03
2019-01-11T15:57:45.034Z,95804.06
2019-01-11T16:00:41.332Z,95804.30
2019-01-11T16:03:32.477Z,95801.87
2019-01-11T16:06:34.920Z,95797.39
2019-01-11T16:10:05.603Z,95797.25
2019-01-11T16:13:36.398Z,95798.58
2019-01-11T16:16:54.052Z,95806.66
2019-01-11T16:19:46.129Z,95806.76
2019-01-11T16:22:39.700Z,95804.99
2019-01-11T16:25:28.082Z,95809.73
2019-01-11T16:28:18.076Z,95810.48
2019-01-11T16:31:08.188Z,95819.92
2019-01-11T16:33:58.400Z,95814.50
2019-01-11T16:36:48.629Z,95817.47
2019-01-11T16:39:40.597Z,95806.50
2019-01-11T16:42:30.917Z,95805.53
2019-01-11T16:45:21.716Z,95809.15
2019-01-11T16:48:12.333Z,95814.52
2019-01-11T16:51:02.622Z,95816.78
2019-01-11T16:53:52.729Z,95820.81
2019-01-11T16:56:43.088Z,95812.20
2019-01-11T16:59:33.743Z,95809.09
2019-01-11T17:02:24.418Z,95815.17
2019-01-11T17:05:16.212Z,95817.69
2019-01-11T17:08:06.370Z,95810.31
2019-01-11T17:10:56.520Z,95801.96
2019-01-11T17:13:46.722Z,95805.95
2019-01-11T17:16:37.197Z,95812.69
2019-01-11T17:19:29.577Z,95812.38
2019-01-11T17:22:20.034Z,95812.94
2019-01-11T17:25:10.569Z,95817.53
2019-01-11T17:28:01.936Z,95816.39
2019-01-11T17:30:52.476Z,95814.84
2019-01-11T17:33:42.878Z,95809.20
2019-01-11T17:36:33.446Z,95813.11
2019-01-11T17:39:43.081Z,95826.75
2019-01-11T17:42:35.585Z,95815.50
2019-01-11T17:45:26.475Z,95814.13
2019-01-11T17:48:17.221Z,95808.00
2019-01-11T17:51:08.618Z,95812.52
2019-01-11T17:53:59.517Z,95817.27
2019-01-11T17:56:50.016Z,95823.70
2019-01-11T17:59:40.521Z,95819.99
2019-01-11T18:02:40.311Z,95818.08
2019-01-11T18:05:49.960Z,95824.81
2019-01-11T18:08:40.500Z,95826.89
2019-01-11T18:11:31.462Z,95822.74
2019-01-11T18:14:22.602Z,95821.98
2019-01-11T18:17:13.051Z,95825.48
2019-01-11T18:20:03.670Z,95822.92
2019-01-11T18:22:54.416Z,95817.45
2019-01-11T18:25:45.115Z,95817.37
2019-01-11T18:28:35.787Z,95813.48
2019-01-11T18:31:26.670Z,95818.71
2019-01-11T18:34:17.604Z,95820.77
2019-01-11T18:37:08.137Z,95821.73
2019-01-11T18:39:58.724Z,95823.44
2019-01-11T18:42:49.670Z,95816.86
2019-01-11T18:45:41.248Z,95811.82
2019-01-11T18:48:32.210Z,95818.72
2019-01-11T18:51:23.335Z,95812.89
2019-01-11T18:54:14.926Z,95809.76
2019-01-11T18:57:07.688Z,95807.72
2019-01-11T18:59:58.193Z,95812.48
2019-01-11T19:02:49.025Z,95813.00
2019-01-11T19:05:39.606Z,95815.23
2019-01-11T19:08:30.183Z,95810.84
2019-01-11T19:11:20.997Z,95817.06
2019-01-11T19:14:11.899Z,95824.80
2019-01-11T19:17:02.370Z,95818.95
2019-01-11T19:19:53.621Z,95823.94
2019-01-11T19:22:44.320Z,95819.69
2019-01-11T19:25:35.430Z,95820.88
2019-01-11T19:28:26.238Z,95821.02
2019-01-11T19:31:17.588Z,95813.66
2019-01-11T19:34:08.971Z,95815.78
2019-01-11T19:37:00.489Z,95816.83
2019-01-11T19:39:51.253Z,95820.22
2019-01-11T19:42:42.318Z,95813.24
2019-01-11T19:45:33.720Z,95815.46
2019-01-11T19:48:24.972Z,95816.20
2019-01-11T19:51:15.633Z,95821.08
2019-01-11T19:54:08.490Z,95817.27
2019-01-11T19:56:59.498Z,95820.12
2019-01-11T19:59:50.562Z,95816.58
2019-01-11T20:02:42.022Z,95812.22
2019-01-11T20:05:32.683Z,95813.57
2019-01-11T20:08:23.512Z,95813.82
2019-01-11T20:11:14.220Z,95809.78
2019-01-11T20:14:06.200Z,95809.09
2019-01-11T20:16:56.965Z,95808.47
2019-01-11T20:19:47.857Z,95813.45
2019-01-11T20:22:38.742Z,95815.16
2019-01-11T20:25:29.604Z,95818.02
2019-01-11T20:28:20.544Z,95818.62
2019-01-11T20:31:11.058Z,95814.42
2019-01-11T20:34:01.869Z,95814.63
2019-01-11T20:37:07.112Z,95805.34
2019-01-11T20:39:58.495Z,95815.66
2019-01-11T20:42:49.715Z,95814.72
2019-01-11T20:45:42.877Z,95818.61
2019-01-11T20:48:33.353Z,95810.66
2019-01-11T20:51:25.269Z,95812.38
2019-01-11T20:54:15.929Z,95805.46
2019-01-11T20:57:06.802Z,95805.54
2019-01-11T21:00:00.660Z,95813.12
2019-01-11T21:02:51.325Z,95812.19
2019-01-11T21:05:42.460Z,95818.00
2019-01-11T21:08:33.112Z,95811.98
2019-01-11T21:11:23.851Z,95811.79
2019-01-11T21:14:14.384Z,95814.24
2019-01-11T21:17:05.196Z,95813.35
2019-01-11T21:19:55.786Z,95805.95
2019-01-11T21:22:46.599Z,95809.56
2019-01-11T21:25:55.897Z,95801.81
2019-01-11T21:28:46.626Z,95812.69
2019-01-11T21:31:37.605Z,95812.11
2019-01-11T21:34:28.159Z,95812.81
2019-01-11T21:37:19.241Z,95811.25
2019-01-11T21:40:28.732Z,95818.03
2019-01-11T21:43:19.230Z,95824.87
2019-01-11T21:46:09.546Z,95828.69
2019-01-11T21:49:00.403Z,95834.05
2019-01-11T21:51:50.703Z,95836.09
2019-01-11T21:54:41.219Z,95832.49
2019-01-11T21:57:31.411Z,95835.88
2019-01-11T22:00:34.992Z,95847.28
2019-01-11T22:03:25.196Z,95847.61
2019-01-11T22:06:15.518Z,95839.50
2019-01-11T22:09:08.913Z,95844.12
2019-01-11T22:11:59.151Z,95838.27
2019-01-11T22:14:49.053Z,95835.80
2019-01-11T22:17:38.975Z,95840.84
2019-01-11T22:20:29.091Z,95838.32
2019-01-11T22:23:23.597Z,95838.28
2019-01-11T22:26:13.610Z,95834.56
2019-01-11T22:29:03.635Z,95830.67
2019-01-11T22:31:53.494Z,95836.84
2019-01-11T22:34:43.354Z,95835.07
2019-01-11T22:37:33.203Z,95830.95
2019-01-11T22:40:25.088Z,95837.33
2019-01-11T22:43:15.130Z,95831.84
2019-01-11T22:46:05.858Z,95829.77
2019-01-11T22:48:56.503Z,95829.02
2019-01-11T22:51:46.745Z,95820.23
2019-01-11T22:54:37.305Z,95821.14
2019-01-11T22:57:27.503Z,95824.16
2019-01-11T23:00:52.193Z,95821.31
2019-01-11T23:04:00.687Z,95815.25
2019-01-11T23:07:10.830Z,95807.48
2019-01-11T23:10:52.672Z,95808.52
2019-01-11T23:13:42.771Z,95801.95
2019-01-11T23:17:04.268Z,95812.98
2019-01-11T23:19:54.205Z,95808.89
2019-01-11T23:22:44.152Z,95817.73
2019-01-11T23:25:34.501Z,95822.15
2019-01-11T23:28:24.678Z,95824.75
2019-01-11T23:31:14.762Z,95831.94
2019-01-11T23:34:05.134Z,95825.89
2019-01-11T23:36:55.260Z,95831.20
2019-01-11T23:39:45.399Z,95826.94
2019-01-11T23:42:37.899Z,95823.31
2019-01-11T23:45:27.882Z,95828.39
2019-01-11T23:48:18.146Z,95826.69
2019-01-11T23:51:08.249Z,95824.86
2019-01-11T23:53:58.253Z,95818.91
2019-01-11T23:56:48.427Z,95811.26
2019-01-11T23:59:38.526Z,95816.01
